sensor_id;sensor_type;location;lat;lon;timestamp;P1;durP1;ratioP1;P2;durP2;ratioP2
68938;SDS011;59064;45.294;11.816;2023-03-21T00:00:36;26.60;;;19.70;;
68938;SDS011;59064;45.294;11.816;2023-03-21T00:03:02;25.10;;;17.70;;
68938;SDS011;59064;45.294;11.816;2023-03-21T00:05:28;20.30;;;14.90;;
68938;SDS011;59064;45.294;11.816;2023-03-21T00:07:54;20.60;;;13.50;;
68938;SDS011;59064;45.294;11.816;2023-03-21T00:10:20;22.80;;;16.20;;
68938;SDS011;59064;45.294;11.816;2023-03-21T00:12:46;22.30;;;17.00;;
68938;SDS011;59064;45.294;11.816;2023-03-21T00:15:15;23.50;;;17.50;;
68938;SDS011;59064;45.294;11.816;2023-03-21T00:17:42;25.50;;;19.80;;
68938;SDS011;59064;45.294;11.816;2023-03-21T00:20:10;22.60;;;16.30;;
68938;SDS011;59064;45.294;11.816;2023-03-21T00:22:39;25.90;;;18.70;;
68938;SDS011;59064;45.294;11.816;2023-03-21T00:25:05;23.20;;;17.20;;
68938;SDS011;59064;45.294;11.816;2023-03-21T00:27:32;26.10;;;19.20;;
68938;SDS011;59064;45.294;11.816;2023-03-21T00:29:58;29.50;;;19.80;;
68938;SDS011;59064;45.294;11.816;2023-03-21T00:32:24;25.10;;;18.40;;
68938;SDS011;59064;45.294;11.816;2023-03-21T00:34:50;24.40;;;18.70;;
68938;SDS011;59064;45.294;11.816;2023-03-21T00:37:16;26.70;;;18.30;;
68938;SDS011;59064;45.294;11.816;2023-03-21T00:39:43;28.90;;;19.80;;
68938;SDS011;59064;45.294;11.816;2023-03-21T00:42:13;26.40;;;20.20;;
68938;SDS011;59064;45.294;11.816;2023-03-21T00:44:39;25.50;;;18.40;;
68938;SDS011;59064;45.294;11.816;2023-03-21T00:47:05;28.40;;;19.00;;
68938;SDS011;59064;45.294;11.816;2023-03-21T00:49:31;26.40;;;18.50;;
68938;SDS011;59064;45.294;11.816;2023-03-21T00:52:03;21.00;;;15.10;;
68938;SDS011;59064;45.294;11.816;2023-03-21T00:54:31;23.60;;;17.70;;
68938;SDS011;59064;45.294;11.816;2023-03-21T00:56:58;21.40;;;17.10;;
68938;SDS011;59064;45.294;11.816;2023-03-21T00:59:23;21.50;;;16.00;;
68938;SDS011;59064;45.294;11.816;2023-03-21T01:01:49;23.70;;;17.30;;
68938;SDS011;59064;45.294;11.816;2023-03-21T01:04:17;25.90;;;17.80;;
68938;SDS011;59064;45.294;11.816;2023-03-21T01:06:46;23.10;;;15.90;;
68938;SDS011;59064;45.294;11.816;2023-03-21T01:09:19;24.90;;;18.50;;
68938;SDS011;59064;45.294;11.816;2023-03-21T01:11:46;21.20;;;15.90;;
68938;SDS011;59064;45.294;11.816;2023-03-21T01:14:14;23.80;;;17.10;;
68938;SDS011;59064;45.294;11.816;2023-03-21T01:16:42;20.90;;;15.40;;
68938;SDS011;59064;45.294;11.816;2023-03-21T01:19:09;21.80;;;16.60;;
68938;SDS011;59064;45.294;11.816;2023-03-21T01:21:37;20.50;;;15.50;;
68938;SDS011;59064;45.294;11.816;2023-03-21T01:24:02;23.60;;;17.90;;
68938;SDS011;59064;45.294;11.816;2023-03-21T01:26:28;22.00;;;17.50;;
68938;SDS011;59064;45.294;11.816;2023-03-21T01:28:54;18.30;;;15.10;;
68938;SDS011;59064;45.294;11.816;2023-03-21T01:31:19;19.30;;;14.90;;
68938;SDS011;59064;45.294;11.816;2023-03-21T01:33:45;18.10;;;14.60;;
68938;SDS011;59064;45.294;11.816;2023-03-21T01:36:19;21.10;;;16.50;;
68938;SDS011;59064;45.294;11.816;2023-03-21T01:38:47;21.60;;;16.40;;
68938;SDS011;59064;45.294;11.816;2023-03-21T01:41:17;25.70;;;18.60;;
68938;SDS011;59064;45.294;11.816;2023-03-21T01:43:46;26.90;;;18.80;;
68938;SDS011;59064;45.294;11.816;2023-03-21T01:46:19;26.00;;;18.30;;
68938;SDS011;59064;45.294;11.816;2023-03-21T01:48:53;25.70;;;17.90;;
68938;SDS011;59064;45.294;11.816;2023-03-21T01:51:22;26.50;;;19.40;;
68938;SDS011;59064;45.294;11.816;2023-03-21T01:53:50;26.70;;;19.40;;
68938;SDS011;59064;45.294;11.816;2023-03-21T01:58:54;35.70;;;23.90;;
68938;SDS011;59064;45.294;11.816;2023-03-21T02:01:28;33.70;;;22.00;;
68938;SDS011;59064;45.294;11.816;2023-03-21T02:03:55;34.80;;;22.40;;
68938;SDS011;59064;45.294;11.816;2023-03-21T02:06:29;34.50;;;23.30;;
68938;SDS011;59064;45.294;11.816;2023-03-21T02:09:02;36.10;;;24.20;;
68938;SDS011;59064;45.294;11.816;2023-03-21T02:11:33;36.50;;;23.90;;
68938;SDS011;59064;45.294;11.816;2023-03-21T02:14:00;36.60;;;24.30;;
68938;SDS011;59064;45.294;11.816;2023-03-21T02:27:31;34.80;;;23.20;;
68938;SDS011;59064;45.294;11.816;2023-03-21T02:40:52;18.50;;;14.20;;
68938;SDS011;59064;45.294;11.816;2023-03-21T02:46:09;23.50;;;17.30;;
68938;SDS011;59064;45.294;11.816;2023-03-21T02:48:38;20.60;;;13.80;;
68938;SDS011;59064;45.294;11.816;2023-03-21T02:51:13;23.10;;;16.00;;
68938;SDS011;59064;45.294;11.816;2023-03-21T02:53:44;22.00;;;16.70;;
68938;SDS011;59064;45.294;11.816;2023-03-21T02:56:15;24.30;;;17.40;;
68938;SDS011;59064;45.294;11.816;2023-03-21T02:58:40;23.70;;;17.20;;
68938;SDS011;59064;45.294;11.816;2023-03-21T03:01:07;22.70;;;17.50;;
68938;SDS011;59064;45.294;11.816;2023-03-21T03:03:34;21.30;;;14.90;;
68938;SDS011;59064;45.294;11.816;2023-03-21T03:06:05;22.40;;;16.30;;
68938;SDS011;59064;45.294;11.816;2023-03-21T03:11:39;20.30;;;13.80;;
68938;SDS011;59064;45.294;11.816;2023-03-21T03:16:57;26.60;;;19.00;;
68938;SDS011;59064;45.294;11.816;2023-03-21T03:28:39;25.90;;;19.30;;
68938;SDS011;59064;45.294;11.816;2023-03-21T03:31:07;19.20;;;14.70;;
68938;SDS011;59064;45.294;11.816;2023-03-21T03:33:39;18.70;;;14.80;;
68938;SDS011;59064;45.294;11.816;2023-03-21T03:36:09;23.40;;;18.10;;
68938;SDS011;59064;45.294;11.816;2023-03-21T03:38:36;20.60;;;15.60;;
68938;SDS011;59064;45.294;11.816;2023-03-21T03:41:07;21.60;;;15.80;;
68938;SDS011;59064;45.294;11.816;2023-03-21T03:43:40;23.10;;;16.80;;
68938;SDS011;59064;45.294;11.816;2023-03-21T03:46:17;21.20;;;15.00;;
68938;SDS011;59064;45.294;11.816;2023-03-21T03:48:51;23.50;;;16.80;;
68938;SDS011;59064;45.294;11.816;2023-03-21T03:51:25;21.10;;;15.20;;
68938;SDS011;59064;45.294;11.816;2023-03-21T03:54:04;20.80;;;16.40;;
68938;SDS011;59064;45.294;11.816;2023-03-21T03:56:34;23.80;;;17.70;;
68938;SDS011;59064;45.294;11.816;2023-03-21T03:59:00;22.10;;;16.10;;
68938;SDS011;59064;45.294;11.816;2023-03-21T04:01:28;19.70;;;16.00;;
68938;SDS011;59064;45.294;11.816;2023-03-21T04:03:54;21.20;;;17.40;;
68938;SDS011;59064;45.294;11.816;2023-03-21T04:06:20;17.70;;;14.60;;
68938;SDS011;59064;45.294;11.816;2023-03-21T04:08:46;18.40;;;14.60;;
68938;SDS011;59064;45.294;11.816;2023-03-21T04:11:13;18.20;;;15.10;;
68938;SDS011;59064;45.294;11.816;2023-03-21T04:13:41;15.60;;;12.90;;
68938;SDS011;59064;45.294;11.816;2023-03-21T04:16:07;16.40;;;13.30;;
68938;SDS011;59064;45.294;11.816;2023-03-21T04:18:35;19.20;;;14.30;;
68938;SDS011;59064;45.294;11.816;2023-03-21T04:21:05;19.50;;;15.30;;
68938;SDS011;59064;45.294;11.816;2023-03-21T04:23:32;16.90;;;13.60;;
68938;SDS011;59064;45.294;11.816;2023-03-21T04:25:59;17.40;;;14.20;;
68938;SDS011;59064;45.294;11.816;2023-03-21T04:28:25;20.20;;;14.70;;
68938;SDS011;59064;45.294;11.816;2023-03-21T04:30:51;19.90;;;16.60;;
68938;SDS011;59064;45.294;11.816;2023-03-21T04:33:16;18.60;;;15.80;;
68938;SDS011;59064;45.294;11.816;2023-03-21T04:35:42;19.90;;;16.10;;
68938;SDS011;59064;45.294;11.816;2023-03-21T04:38:09;21.80;;;15.10;;
68938;SDS011;59064;45.294;11.816;2023-03-21T04:40:35;21.40;;;15.70;;
68938;SDS011;59064;45.294;11.816;2023-03-21T04:43:01;23.10;;;16.60;;
68938;SDS011;59064;45.294;11.816;2023-03-21T04:45:26;23.00;;;15.70;;
68938;SDS011;59064;45.294;11.816;2023-03-21T04:47:52;23.90;;;16.80;;
68938;SDS011;59064;45.294;11.816;2023-03-21T04:50:17;24.30;;;17.10;;
68938;SDS011;59064;45.294;11.816;2023-03-21T04:52:43;23.00;;;16.70;;
68938;SDS011;59064;45.294;11.816;2023-03-21T04:55:09;27.80;;;19.50;;
68938;SDS011;59064;45.294;11.816;2023-03-21T04:57:38;37.80;;;23.70;;
68938;SDS011;59064;45.294;11.816;2023-03-21T05:00:05;29.10;;;20.90;;
68938;SDS011;59064;45.294;11.816;2023-03-21T05:02:35;26.30;;;18.70;;
68938;SDS011;59064;45.294;11.816;2023-03-21T05:05:01;27.70;;;20.60;;
68938;SDS011;59064;45.294;11.816;2023-03-21T05:07:27;19.60;;;14.90;;
68938;SDS011;59064;45.294;11.816;2023-03-21T05:09:55;23.90;;;16.00;;
68938;SDS011;59064;45.294;11.816;2023-03-21T05:12:21;28.00;;;19.70;;
68938;SDS011;59064;45.294;11.816;2023-03-21T05:14:46;25.20;;;18.10;;
68938;SDS011;59064;45.294;11.816;2023-03-21T05:17:12;24.50;;;18.50;;
68938;SDS011;59064;45.294;11.816;2023-03-21T05:19:50;27.50;;;19.20;;
68938;SDS011;59064;45.294;11.816;2023-03-21T05:22:17;31.90;;;20.00;;
68938;SDS011;59064;45.294;11.816;2023-03-21T05:24:43;32.00;;;21.90;;
68938;SDS011;59064;45.294;11.816;2023-03-21T05:27:15;28.20;;;18.30;;
68938;SDS011;59064;45.294;11.816;2023-03-21T05:30:08;39.00;;;21.80;;
68938;SDS011;59064;45.294;11.816;2023-03-21T05:32:35;33.60;;;22.40;;
68938;SDS011;59064;45.294;11.816;2023-03-21T05:35:02;28.30;;;19.30;;
68938;SDS011;59064;45.294;11.816;2023-03-21T05:37:28;32.80;;;23.10;;
68938;SDS011;59064;45.294;11.816;2023-03-21T05:39:54;36.40;;;25.30;;
68938;SDS011;59064;45.294;11.816;2023-03-21T05:42:20;36.80;;;23.40;;
68938;SDS011;59064;45.294;11.816;2023-03-21T05:44:46;33.50;;;22.60;;
68938;SDS011;59064;45.294;11.816;2023-03-21T05:47:13;38.10;;;24.30;;
68938;SDS011;59064;45.294;11.816;2023-03-21T05:49:40;37.90;;;25.50;;
68938;SDS011;59064;45.294;11.816;2023-03-21T05:52:06;27.60;;;19.30;;
68938;SDS011;59064;45.294;11.816;2023-03-21T05:54:36;27.20;;;20.20;;
68938;SDS011;59064;45.294;11.816;2023-03-21T05:57:02;31.90;;;22.50;;
68938;SDS011;59064;45.294;11.816;2023-03-21T05:59:29;35.60;;;23.50;;
68938;SDS011;59064;45.294;11.816;2023-03-21T06:01:55;29.10;;;20.10;;
68938;SDS011;59064;45.294;11.816;2023-03-21T06:04:21;29.90;;;19.60;;
68938;SDS011;59064;45.294;11.816;2023-03-21T06:06:47;30.60;;;21.90;;
68938;SDS011;59064;45.294;11.816;2023-03-21T06:09:12;35.50;;;25.80;;
68938;SDS011;59064;45.294;11.816;2023-03-21T06:11:38;34.20;;;23.60;;
68938;SDS011;59064;45.294;11.816;2023-03-21T06:14:08;31.80;;;22.60;;
68938;SDS011;59064;45.294;11.816;2023-03-21T06:16:34;33.60;;;23.60;;
68938;SDS011;59064;45.294;11.816;2023-03-21T06:18:59;35.40;;;23.40;;
68938;SDS011;59064;45.294;11.816;2023-03-21T06:21:25;25.30;;;19.00;;
68938;SDS011;59064;45.294;11.816;2023-03-21T06:23:51;27.30;;;20.00;;
68938;SDS011;59064;45.294;11.816;2023-03-21T06:26:17;26.20;;;20.90;;
68938;SDS011;59064;45.294;11.816;2023-03-21T06:28:47;25.60;;;19.00;;
68938;SDS011;59064;45.294;11.816;2023-03-21T06:31:17;25.20;;;19.60;;
68938;SDS011;59064;45.294;11.816;2023-03-21T06:33:44;26.80;;;18.80;;
68938;SDS011;59064;45.294;11.816;2023-03-21T06:36:10;66.10;;;39.80;;
68938;SDS011;59064;45.294;11.816;2023-03-21T06:38:36;43.20;;;26.50;;
68938;SDS011;59064;45.294;11.816;2023-03-21T06:41:05;27.60;;;19.40;;
68938;SDS011;59064;45.294;11.816;2023-03-21T06:43:32;44.60;;;30.50;;
68938;SDS011;59064;45.294;11.816;2023-03-21T06:45:58;36.50;;;25.20;;
68938;SDS011;59064;45.294;11.816;2023-03-21T06:48:25;28.30;;;21.10;;
68938;SDS011;59064;45.294;11.816;2023-03-21T06:50:52;26.30;;;19.60;;
68938;SDS011;59064;45.294;11.816;2023-03-21T06:53:18;23.10;;;17.50;;
68938;SDS011;59064;45.294;11.816;2023-03-21T06:55:54;28.60;;;19.20;;
68938;SDS011;59064;45.294;11.816;2023-03-21T06:58:21;23.70;;;16.80;;
68938;SDS011;59064;45.294;11.816;2023-03-21T07:00:48;24.10;;;17.80;;
68938;SDS011;59064;45.294;11.816;2023-03-21T07:03:14;32.30;;;22.80;;
68938;SDS011;59064;45.294;11.816;2023-03-21T07:05:41;30.50;;;21.40;;
68938;SDS011;59064;45.294;11.816;2023-03-21T07:08:07;27.10;;;18.30;;
68938;SDS011;59064;45.294;11.816;2023-03-21T07:10:42;32.80;;;23.00;;
68938;SDS011;59064;45.294;11.816;2023-03-21T07:13:10;31.90;;;21.50;;
68938;SDS011;59064;45.294;11.816;2023-03-21T07:15:35;31.20;;;21.80;;
68938;SDS011;59064;45.294;11.816;2023-03-21T07:18:05;28.20;;;19.20;;
68938;SDS011;59064;45.294;11.816;2023-03-21T07:20:32;27.80;;;20.40;;
68938;SDS011;59064;45.294;11.816;2023-03-21T07:22:59;30.60;;;20.60;;
68938;SDS011;59064;45.294;11.816;2023-03-21T07:25:25;25.00;;;17.90;;
68938;SDS011;59064;45.294;11.816;2023-03-21T07:27:53;22.80;;;18.00;;
68938;SDS011;59064;45.294;11.816;2023-03-21T07:30:18;25.50;;;18.80;;
68938;SDS011;59064;45.294;11.816;2023-03-21T07:32:44;29.00;;;19.70;;
68938;SDS011;59064;45.294;11.816;2023-03-21T07:35:12;25.20;;;19.10;;
68938;SDS011;59064;45.294;11.816;2023-03-21T07:37:41;26.90;;;19.40;;
68938;SDS011;59064;45.294;11.816;2023-03-21T07:40:07;30.00;;;21.40;;
68938;SDS011;59064;45.294;11.816;2023-03-21T07:42:34;27.80;;;21.00;;
68938;SDS011;59064;45.294;11.816;2023-03-21T07:45:01;29.40;;;21.80;;
68938;SDS011;59064;45.294;11.816;2023-03-21T07:47:29;30.20;;;21.40;;
68938;SDS011;59064;45.294;11.816;2023-03-21T07:49:55;28.30;;;21.30;;
68938;SDS011;59064;45.294;11.816;2023-03-21T07:52:22;29.70;;;22.60;;
68938;SDS011;59064;45.294;11.816;2023-03-21T07:54:48;28.80;;;21.20;;
68938;SDS011;59064;45.294;11.816;2023-03-21T07:57:14;33.70;;;24.20;;
68938;SDS011;59064;45.294;11.816;2023-03-21T07:59:40;35.10;;;25.30;;
68938;SDS011;59064;45.294;11.816;2023-03-21T08:02:06;31.50;;;22.00;;
68938;SDS011;59064;45.294;11.816;2023-03-21T08:04:32;32.60;;;24.90;;
68938;SDS011;59064;45.294;11.816;2023-03-21T08:06:59;33.00;;;24.20;;
68938;SDS011;59064;45.294;11.816;2023-03-21T08:09:25;34.10;;;25.20;;
68938;SDS011;59064;45.294;11.816;2023-03-21T08:11:51;35.50;;;25.10;;
68938;SDS011;59064;45.294;11.816;2023-03-21T08:14:16;33.80;;;24.70;;
68938;SDS011;59064;45.294;11.816;2023-03-21T08:16:42;32.70;;;23.70;;
68938;SDS011;59064;45.294;11.816;2023-03-21T08:19:08;30.70;;;22.30;;
68938;SDS011;59064;45.294;11.816;2023-03-21T08:21:34;34.30;;;25.30;;
68938;SDS011;59064;45.294;11.816;2023-03-21T08:24:00;34.80;;;25.00;;
68938;SDS011;59064;45.294;11.816;2023-03-21T08:26:25;33.70;;;24.60;;
68938;SDS011;59064;45.294;11.816;2023-03-21T08:28:51;33.80;;;24.20;;
68938;SDS011;59064;45.294;11.816;2023-03-21T08:31:17;33.90;;;26.50;;
68938;SDS011;59064;45.294;11.816;2023-03-21T08:33:42;28.20;;;21.40;;
68938;SDS011;59064;45.294;11.816;2023-03-21T08:36:08;29.80;;;22.40;;
68938;SDS011;59064;45.294;11.816;2023-03-21T08:38:35;28.40;;;21.50;;
68938;SDS011;59064;45.294;11.816;2023-03-21T08:41:01;30.80;;;23.30;;
68938;SDS011;59064;45.294;11.816;2023-03-21T08:43:27;30.40;;;24.30;;
68938;SDS011;59064;45.294;11.816;2023-03-21T08:45:54;34.40;;;25.10;;
68938;SDS011;59064;45.294;11.816;2023-03-21T08:48:21;34.60;;;26.20;;
68938;SDS011;59064;45.294;11.816;2023-03-21T08:50:46;35.60;;;25.80;;
68938;SDS011;59064;45.294;11.816;2023-03-21T08:53:12;26.70;;;20.90;;
68938;SDS011;59064;45.294;11.816;2023-03-21T08:55:38;34.60;;;25.20;;
68938;SDS011;59064;45.294;11.816;2023-03-21T08:58:04;34.30;;;25.10;;
68938;SDS011;59064;45.294;11.816;2023-03-21T09:00:31;35.50;;;27.40;;
68938;SDS011;59064;45.294;11.816;2023-03-21T09:02:57;37.50;;;27.10;;
68938;SDS011;59064;45.294;11.816;2023-03-21T09:05:23;38.10;;;28.10;;
68938;SDS011;59064;45.294;11.816;2023-03-21T09:07:51;34.50;;;25.00;;
68938;SDS011;59064;45.294;11.816;2023-03-21T09:10:18;32.80;;;25.10;;
68938;SDS011;59064;45.294;11.816;2023-03-21T09:12:46;35.90;;;27.50;;
68938;SDS011;59064;45.294;11.816;2023-03-21T09:15:16;36.20;;;27.30;;
68938;SDS011;59064;45.294;11.816;2023-03-21T09:17:44;35.70;;;26.50;;
68938;SDS011;59064;45.294;11.816;2023-03-21T09:20:14;35.10;;;26.30;;
68938;SDS011;59064;45.294;11.816;2023-03-21T09:22:43;33.60;;;26.60;;
68938;SDS011;59064;45.294;11.816;2023-03-21T09:25:14;37.80;;;29.70;;
68938;SDS011;59064;45.294;11.816;2023-03-21T09:27:42;35.70;;;28.90;;
68938;SDS011;59064;45.294;11.816;2023-03-21T09:30:10;35.80;;;27.90;;
68938;SDS011;59064;45.294;11.816;2023-03-21T09:32:38;32.40;;;25.60;;
68938;SDS011;59064;45.294;11.816;2023-03-21T09:35:04;29.40;;;21.70;;
68938;SDS011;59064;45.294;11.816;2023-03-21T09:37:31;30.90;;;24.60;;
68938;SDS011;59064;45.294;11.816;2023-03-21T09:39:58;33.70;;;26.90;;
68938;SDS011;59064;45.294;11.816;2023-03-21T09:47:48;37.30;;;28.20;;
68938;SDS011;59064;45.294;11.816;2023-03-21T09:53:29;28.20;;;21.70;;
68938;SDS011;59064;45.294;11.816;2023-03-21T09:55:43;35.40;;;26.60;;
68938;SDS011;59064;45.294;11.816;2023-03-21T10:01:11;30.10;;;24.20;;
68938;SDS011;59064;45.294;11.816;2023-03-21T10:03:55;30.00;;;23.20;;
68938;SDS011;59064;45.294;11.816;2023-03-21T10:06:25;34.50;;;27.40;;
68938;SDS011;59064;45.294;11.816;2023-03-21T10:08:57;38.60;;;30.30;;
68938;SDS011;59064;45.294;11.816;2023-03-21T10:11:36;38.20;;;30.40;;
68938;SDS011;59064;45.294;11.816;2023-03-21T10:14:14;39.10;;;29.50;;
68938;SDS011;59064;45.294;11.816;2023-03-21T10:16:45;36.50;;;29.10;;
68938;SDS011;59064;45.294;11.816;2023-03-21T10:19:14;34.60;;;24.60;;
68938;SDS011;59064;45.294;11.816;2023-03-21T10:21:42;36.10;;;27.80;;
68938;SDS011;59064;45.294;11.816;2023-03-21T10:24:15;34.00;;;26.60;;
68938;SDS011;59064;45.294;11.816;2023-03-21T10:26:44;31.50;;;23.70;;
68938;SDS011;59064;45.294;11.816;2023-03-21T10:29:13;26.40;;;20.20;;
68938;SDS011;59064;45.294;11.816;2023-03-21T10:31:41;31.50;;;23.60;;
68938;SDS011;59064;45.294;11.816;2023-03-21T10:34:18;31.20;;;23.80;;
68938;SDS011;59064;45.294;11.816;2023-03-21T10:36:52;28.20;;;21.90;;
68938;SDS011;59064;45.294;11.816;2023-03-21T10:42:04;32.90;;;25.20;;
68938;SDS011;59064;45.294;11.816;2023-03-21T10:44:31;33.00;;;26.00;;
68938;SDS011;59064;45.294;11.816;2023-03-21T10:47:03;29.00;;;23.10;;
68938;SDS011;59064;45.294;11.816;2023-03-21T10:49:31;26.40;;;21.20;;
68938;SDS011;59064;45.294;11.816;2023-03-21T10:51:57;26.90;;;21.20;;
68938;SDS011;59064;45.294;11.816;2023-03-21T10:54:28;31.10;;;24.00;;
68938;SDS011;59064;45.294;11.816;2023-03-21T10:57:03;27.80;;;21.40;;
68938;SDS011;59064;45.294;11.816;2023-03-21T10:59:43;30.30;;;23.40;;
68938;SDS011;59064;45.294;11.816;2023-03-21T11:02:18;23.70;;;18.40;;
68938;SDS011;59064;45.294;11.816;2023-03-21T11:05:03;26.30;;;20.90;;
68938;SDS011;59064;45.294;11.816;2023-03-21T11:07:30;20.90;;;16.30;;
68938;SDS011;59064;45.294;11.816;2023-03-21T11:09:57;26.10;;;21.20;;
68938;SDS011;59064;45.294;11.816;2023-03-21T11:12:34;25.90;;;21.90;;
68938;SDS011;59064;45.294;11.816;2023-03-21T11:17:47;24.00;;;19.50;;
68938;SDS011;59064;45.294;11.816;2023-03-21T11:20:15;28.00;;;21.00;;
68938;SDS011;59064;45.294;11.816;2023-03-21T11:22:43;20.60;;;16.40;;
68938;SDS011;59064;45.294;11.816;2023-03-21T11:25:20;22.60;;;17.20;;
68938;SDS011;59064;45.294;11.816;2023-03-21T11:27:56;22.70;;;18.10;;
68938;SDS011;59064;45.294;11.816;2023-03-21T11:30:30;20.80;;;18.10;;
68938;SDS011;59064;45.294;11.816;2023-03-21T11:32:58;19.30;;;14.70;;
68938;SDS011;59064;45.294;11.816;2023-03-21T11:35:36;27.70;;;20.30;;
68938;SDS011;59064;45.294;11.816;2023-03-21T11:38:04;21.10;;;17.10;;
68938;SDS011;59064;45.294;11.816;2023-03-21T11:40:34;22.70;;;18.30;;
68938;SDS011;59064;45.294;11.816;2023-03-21T11:45:54;23.10;;;16.70;;
68938;SDS011;59064;45.294;11.816;2023-03-21T11:48:43;26.60;;;21.60;;
68938;SDS011;59064;45.294;11.816;2023-03-21T11:59:35;32.10;;;23.10;;
68938;SDS011;59064;45.294;11.816;2023-03-21T12:07:53;29.10;;;21.90;;
68938;SDS011;59064;45.294;11.816;2023-03-21T12:10:42;29.70;;;23.10;;
68938;SDS011;59064;45.294;11.816;2023-03-21T12:13:25;25.00;;;18.50;;
68938;SDS011;59064;45.294;11.816;2023-03-21T12:19:01;23.60;;;17.90;;
68938;SDS011;59064;45.294;11.816;2023-03-21T12:26:40;25.90;;;20.00;;
68938;SDS011;59064;45.294;11.816;2023-03-21T12:37:27;25.70;;;20.60;;
68938;SDS011;59064;45.294;11.816;2023-03-21T12:45:43;21.50;;;17.10;;
68938;SDS011;59064;45.294;11.816;2023-03-21T12:51:14;21.10;;;18.00;;
68938;SDS011;59064;45.294;11.816;2023-03-21T12:56:13;21.00;;;17.00;;
68938;SDS011;59064;45.294;11.816;2023-03-21T12:58:45;20.00;;;16.40;;
68938;SDS011;59064;45.294;11.816;2023-03-21T13:01:16;17.90;;;15.10;;
68938;SDS011;59064;45.294;11.816;2023-03-21T13:03:47;21.30;;;16.40;;
68938;SDS011;59064;45.294;11.816;2023-03-21T13:06:20;23.80;;;19.10;;
68938;SDS011;59064;45.294;11.816;2023-03-21T13:08:57;19.90;;;15.60;;
68938;SDS011;59064;45.294;11.816;2023-03-21T13:11:35;26.80;;;21.80;;
68938;SDS011;59064;45.294;11.816;2023-03-21T13:24:46;23.20;;;19.50;;
68938;SDS011;59064;45.294;11.816;2023-03-21T13:30:01;17.00;;;13.40;;
68938;SDS011;59064;45.294;11.816;2023-03-21T13:32:43;19.80;;;16.20;;
68938;SDS011;59064;45.294;11.816;2023-03-21T13:35:18;20.00;;;15.40;;
68938;SDS011;59064;45.294;11.816;2023-03-21T13:37:52;21.30;;;16.10;;
68938;SDS011;59064;45.294;11.816;2023-03-21T13:42:52;17.30;;;14.00;;
68938;SDS011;59064;45.294;11.816;2023-03-21T13:45:43;19.60;;;13.10;;
68938;SDS011;59064;45.294;11.816;2023-03-21T13:48:27;18.40;;;12.90;;
68938;SDS011;59064;45.294;11.816;2023-03-21T13:53:35;16.20;;;12.60;;
68938;SDS011;59064;45.294;11.816;2023-03-21T14:03:41;13.60;;;9.90;;
68938;SDS011;59064;45.294;11.816;2023-03-21T14:06:10;13.00;;;10.50;;
68938;SDS011;59064;45.294;11.816;2023-03-21T14:08:36;14.00;;;10.90;;
68938;SDS011;59064;45.294;11.816;2023-03-21T14:11:06;15.10;;;12.80;;
68938;SDS011;59064;45.294;11.816;2023-03-21T14:13:36;14.20;;;12.10;;
68938;SDS011;59064;45.294;11.816;2023-03-21T14:16:06;15.30;;;11.90;;
68938;SDS011;59064;45.294;11.816;2023-03-21T14:18:53;14.80;;;12.20;;
68938;SDS011;59064;45.294;11.816;2023-03-21T14:21:33;13.80;;;10.30;;
68938;SDS011;59064;45.294;11.816;2023-03-21T14:24:01;12.50;;;10.30;;
68938;SDS011;59064;45.294;11.816;2023-03-21T14:26:42;13.70;;;11.40;;
68938;SDS011;59064;45.294;11.816;2023-03-21T14:29:18;12.10;;;10.40;;
68938;SDS011;59064;45.294;11.816;2023-03-21T14:31:45;14.80;;;12.60;;
68938;SDS011;59064;45.294;11.816;2023-03-21T14:34:12;15.40;;;13.80;;
68938;SDS011;59064;45.294;11.816;2023-03-21T14:36:41;17.50;;;15.20;;
68938;SDS011;59064;45.294;11.816;2023-03-21T14:39:13;18.60;;;14.40;;
68938;SDS011;59064;45.294;11.816;2023-03-21T14:41:43;15.80;;;13.00;;
68938;SDS011;59064;45.294;11.816;2023-03-21T14:47:04;15.60;;;11.90;;
68938;SDS011;59064;45.294;11.816;2023-03-21T14:49:41;15.30;;;13.10;;
68938;SDS011;59064;45.294;11.816;2023-03-21T14:52:12;15.70;;;14.00;;
68938;SDS011;59064;45.294;11.816;2023-03-21T14:54:43;16.70;;;13.80;;
68938;SDS011;59064;45.294;11.816;2023-03-21T14:57:12;14.00;;;12.20;;
68938;SDS011;59064;45.294;11.816;2023-03-21T14:59:40;19.20;;;14.40;;
68938;SDS011;59064;45.294;11.816;2023-03-21T15:04:58;16.50;;;13.20;;
68938;SDS011;59064;45.294;11.816;2023-03-21T15:07:34;17.50;;;13.50;;
68938;SDS011;59064;45.294;11.816;2023-03-21T15:10:04;19.40;;;15.70;;
68938;SDS011;59064;45.294;11.816;2023-03-21T15:12:32;19.70;;;16.00;;
68938;SDS011;59064;45.294;11.816;2023-03-21T15:14:59;18.50;;;16.00;;
68938;SDS011;59064;45.294;11.816;2023-03-21T15:17:26;19.60;;;16.90;;
68938;SDS011;59064;45.294;11.816;2023-03-21T15:19:52;21.40;;;17.20;;
68938;SDS011;59064;45.294;11.816;2023-03-21T15:22:20;18.90;;;16.60;;
68938;SDS011;59064;45.294;11.816;2023-03-21T15:25:03;20.80;;;17.30;;
68938;SDS011;59064;45.294;11.816;2023-03-21T15:27:33;22.10;;;17.60;;
68938;SDS011;59064;45.294;11.816;2023-03-21T15:30:04;20.50;;;17.90;;
68938;SDS011;59064;45.294;11.816;2023-03-21T15:32:31;20.20;;;16.70;;
68938;SDS011;59064;45.294;11.816;2023-03-21T15:35:05;17.80;;;15.20;;
68938;SDS011;59064;45.294;11.816;2023-03-21T15:37:37;18.80;;;15.50;;
68938;SDS011;59064;45.294;11.816;2023-03-21T15:40:20;20.00;;;16.20;;
68938;SDS011;59064;45.294;11.816;2023-03-21T15:42:50;18.60;;;15.40;;
68938;SDS011;59064;45.294;11.816;2023-03-21T15:45:31;19.70;;;15.00;;
68938;SDS011;59064;45.294;11.816;2023-03-21T15:48:01;18.40;;;14.80;;
68938;SDS011;59064;45.294;11.816;2023-03-21T15:50:36;18.10;;;15.20;;
68938;SDS011;59064;45.294;11.816;2023-03-21T15:53:05;16.60;;;14.30;;
68938;SDS011;59064;45.294;11.816;2023-03-21T15:55:39;17.20;;;14.70;;
68938;SDS011;59064;45.294;11.816;2023-03-21T15:58:56;18.40;;;14.00;;
68938;SDS011;59064;45.294;11.816;2023-03-21T16:01:09;19.10;;;14.30;;
68938;SDS011;59064;45.294;11.816;2023-03-21T16:03:44;18.30;;;14.00;;
68938;SDS011;59064;45.294;11.816;2023-03-21T16:08:43;15.90;;;13.00;;
68938;SDS011;59064;45.294;11.816;2023-03-21T16:13:41;17.30;;;13.30;;
68938;SDS011;59064;45.294;11.816;2023-03-21T16:16:13;19.50;;;14.10;;
68938;SDS011;59064;45.294;11.816;2023-03-21T16:18:41;19.10;;;15.10;;
68938;SDS011;59064;45.294;11.816;2023-03-21T16:21:14;19.90;;;15.50;;
68938;SDS011;59064;45.294;11.816;2023-03-21T16:23:42;19.50;;;14.40;;
68938;SDS011;59064;45.294;11.816;2023-03-21T16:26:30;21.10;;;15.10;;
68938;SDS011;59064;45.294;11.816;2023-03-21T16:29:01;22.10;;;16.20;;
68938;SDS011;59064;45.294;11.816;2023-03-21T16:31:28;21.30;;;15.80;;
68938;SDS011;59064;45.294;11.816;2023-03-21T16:33:56;22.90;;;15.90;;
68938;SDS011;59064;45.294;11.816;2023-03-21T16:36:22;21.40;;;15.70;;
68938;SDS011;59064;45.294;11.816;2023-03-21T16:38:50;23.10;;;16.40;;
68938;SDS011;59064;45.294;11.816;2023-03-21T16:41:17;24.50;;;16.20;;